createdAt,value
2023-12-08T00:00:39.080Z,98.69
2023-12-08T00:03:10.681Z,98.01
2023-12-08T00:05:41.247Z,97.62
2023-12-08T00:08:11.566Z,97.25
2023-12-08T00:10:42.349Z,97.31
2023-12-08T00:13:13.493Z,95.76
2023-12-08T00:15:44.239Z,94.97
2023-12-08T00:18:14.930Z,94.35
2023-12-08T00:20:45.145Z,94.12
2023-12-08T00:23:15.094Z,93.37
2023-12-08T00:25:45.816Z,92.93
2023-12-08T00:28:16.735Z,92.21
2023-12-08T00:30:48.610Z,92.04
2023-12-08T00:33:18.931Z,92.40
2023-12-08T00:35:50.549Z,92.41
2023-12-08T00:38:22.159Z,91.99
2023-12-08T00:40:53.284Z,91.78
2023-12-08T00:43:23.241Z,91.80
2023-12-08T00:45:52.933Z,92.04
2023-12-08T00:48:23.534Z,92.47
2023-12-08T00:50:53.847Z,92.39
2023-12-08T00:53:24.410Z,92.27
2023-12-08T00:55:55.095Z,92.27
2023-12-08T00:58:25.514Z,92.57
2023-12-08T01:00:55.817Z,92.52
2023-12-08T01:03:26.544Z,92.53
2023-12-08T01:05:56.440Z,92.10
2023-12-08T01:08:26.567Z,92.89
2023-12-08T01:10:57.081Z,92.14
2023-12-08T01:13:28.024Z,91.16
2023-12-08T01:15:58.082Z,90.77
2023-12-08T01:18:28.274Z,90.65
2023-12-08T01:20:58.907Z,90.03
2023-12-08T01:23:29.128Z,90.84
2023-12-08T01:25:59.588Z,90.33
2023-12-08T01:28:30.925Z,90.83
2023-12-08T01:31:02.176Z,90.71
2023-12-08T01:33:32.999Z,90.95
2023-12-08T01:36:38.354Z,91.25
2023-12-08T01:38:54.132Z,91.10
2023-12-08T01:41:24.319Z,90.69
2023-12-08T01:43:55.008Z,91.32
2023-12-08T01:46:25.932Z,90.34
2023-12-08T01:48:56.913Z,90.24
2023-12-08T01:51:27.685Z,90.18
2023-12-08T01:53:57.890Z,90.15
2023-12-08T01:56:29.951Z,91.71
2023-12-08T01:59:01.276Z,91.14
2023-12-08T02:01:32.533Z,91.25
2023-12-08T02:04:02.702Z,90.89
2023-12-08T02:06:32.846Z,91.34
2023-12-08T02:09:04.376Z,92.40
2023-12-08T02:11:34.918Z,92.39
2023-12-08T02:14:06.389Z,92.59
2023-12-08T02:16:42.917Z,92.86
2023-12-08T02:19:16.508Z,93.50
2023-12-08T02:21:47.736Z,92.55
2023-12-08T02:24:21.738Z,92.64
2023-12-08T02:26:52.757Z,93.58
2023-12-08T02:29:23.405Z,93.24
2023-12-08T02:32:11.338Z,92.02
2023-12-08T02:34:44.327Z,92.12
2023-12-08T02:37:17.454Z,92.50
2023-12-08T02:39:50.652Z,92.77
2023-12-08T02:42:22.209Z,93.52
2023-12-08T02:44:52.679Z,93.94
2023-12-08T02:47:22.799Z,93.90
2023-12-08T02:49:54.405Z,94.32
2023-12-08T02:52:24.577Z,95.46
2023-12-08T02:54:55.169Z,96.23
2023-12-08T02:57:25.189Z,97.36
2023-12-08T02:59:55.442Z,98.10
2023-12-08T03:02:25.967Z,98.55
2023-12-08T03:04:57.972Z,98.79
2023-12-08T03:07:29.451Z,98.61
2023-12-08T03:09:59.502Z,98.98
2023-12-08T03:12:29.216Z,99.42
2023-12-08T03:14:59.876Z,99.48
2023-12-08T03:17:30.878Z,99.66
2023-12-08T03:20:01.539Z,99.66
2023-12-08T03:22:31.511Z,99.99
2023-12-08T03:25:02.312Z,99.99
2023-12-08T03:27:32.593Z,99.99
2023-12-08T03:30:03.753Z,99.99
2023-12-08T03:32:34.518Z,99.99
2023-12-08T03:35:05.575Z,99.99
2023-12-08T03:37:35.340Z,99.99
2023-12-08T03:40:08.450Z,99.99
2023-12-08T03:42:39.286Z,99.99
2023-12-08T03:45:09.587Z,99.99
2023-12-08T03:47:39.567Z,99.99
2023-12-08T03:50:10.731Z,99.99
2023-12-08T03:52:41.469Z,99.99
2023-12-08T03:55:13.465Z,99.99
2023-12-08T03:57:43.428Z,99.99
2023-12-08T04:00:13.963Z,99.99
2023-12-08T04:02:44.500Z,99.99
2023-12-08T04:05:15.104Z,99.99
2023-12-08T04:07:45.485Z,99.99
2023-12-08T04:10:15.508Z,99.99
2023-12-08T04:12:46.226Z,99.99
2023-12-08T04:15:16.941Z,99.99
2023-12-08T04:17:46.921Z,99.99
2023-12-08T04:20:16.824Z,99.99
2023-12-08T04:22:47.494Z,99.99
2023-12-08T04:25:17.910Z,99.99
2023-12-08T04:27:48.411Z,99.99
2023-12-08T04:30:18.200Z,99.99
2023-12-08T04:32:48.524Z,99.99
2023-12-08T04:35:18.698Z,99.99
2023-12-08T04:37:50.434Z,99.99
2023-12-08T04:40:20.556Z,99.99
2023-12-08T04:42:50.290Z,99.99
2023-12-08T04:45:20.473Z,99.99
2023-12-08T04:47:50.750Z,99.99
2023-12-08T04:50:21.786Z,99.99
2023-12-08T04:52:51.510Z,99.99
2023-12-08T04:55:22.434Z,99.99
2023-12-08T04:57:52.653Z,99.99
2023-12-08T05:00:23.435Z,99.99
2023-12-08T05:02:53.262Z,99.99
2023-12-08T05:05:23.120Z,99.99
2023-12-08T05:07:53.445Z,99.99
2023-12-08T05:10:23.773Z,99.99
2023-12-08T05:12:54.716Z,99.99
2023-12-08T05:15:26.102Z,99.99
2023-12-08T05:17:56.975Z,99.99
2023-12-08T05:20:29.849Z,99.99
2023-12-08T05:23:00.849Z,99.99
2023-12-08T05:25:30.632Z,99.99
2023-12-08T05:28:01.017Z,99.99
2023-12-08T05:30:31.368Z,99.99
2023-12-08T05:33:02.361Z,99.99
2023-12-08T05:35:32.534Z,99.99
2023-12-08T05:38:02.338Z,99.99
2023-12-08T05:40:33.602Z,99.99
2023-12-08T05:43:03.899Z,99.99
2023-12-08T05:45:34.403Z,99.99
2023-12-08T05:48:04.565Z,99.99
2023-12-08T05:50:35.268Z,99.99
2023-12-08T05:53:05.716Z,99.99
2023-12-08T05:55:35.439Z,99.99
2023-12-08T05:58:06.688Z,99.99
2023-12-08T06:00:37.239Z,99.99
2023-12-08T06:03:07.255Z,99.99
2023-12-08T06:05:37.778Z,99.99
2023-12-08T06:08:07.933Z,99.99
2023-12-08T06:10:37.792Z,99.99
2023-12-08T06:13:08.452Z,99.99
2023-12-08T06:15:38.623Z,99.99
2023-12-08T06:18:09.365Z,99.99
2023-12-08T06:20:39.952Z,99.99
2023-12-08T06:23:11.616Z,99.99
2023-12-08T06:25:41.617Z,99.99
2023-12-08T06:28:11.477Z,99.99
2023-12-08T06:30:42.094Z,99.99
2023-12-08T06:33:12.341Z,99.99
2023-12-08T06:35:43.087Z,99.99
2023-12-08T06:38:13.190Z,99.99
2023-12-08T06:40:43.930Z,99.99
2023-12-08T06:43:14.148Z,99.99
2023-12-08T06:45:44.921Z,99.99
2023-12-08T06:48:14.924Z,99.99
2023-12-08T06:50:44.682Z,99.99
2023-12-08T06:53:15.810Z,99.99
2023-12-08T06:55:46.606Z,99.99
2023-12-08T06:58:17.706Z,99.99
2023-12-08T07:00:47.401Z,99.99
2023-12-08T07:03:17.967Z,99.99
2023-12-08T07:05:49.423Z,99.99
2023-12-08T07:08:20.446Z,99.99
2023-12-08T07:10:50.350Z,99.99
2023-12-08T07:13:20.460Z,99.99
2023-12-08T07:15:50.172Z,99.99
2023-12-08T07:18:20.779Z,99.99
2023-12-08T07:20:52.757Z,99.99
2023-12-08T07:23:23.581Z,99.99
2023-12-08T07:25:53.758Z,99.99
2023-12-08T07:28:23.807Z,99.99
2023-12-08T07:30:54.013Z,99.99
2023-12-08T07:33:24.606Z,99.99
2023-12-08T07:35:55.151Z,99.99
2023-12-08T07:38:25.466Z,99.99
2023-12-08T07:40:55.320Z,99.99
2023-12-08T07:43:25.762Z,99.99
2023-12-08T07:45:56.634Z,99.99
2023-12-08T07:48:27.962Z,99.99
2023-12-08T07:50:58.215Z,99.99
2023-12-08T07:53:28.737Z,99.99
2023-12-08T07:55:59.634Z,99.99
2023-12-08T07:58:29.345Z,99.99
2023-12-08T08:01:00.263Z,99.99
2023-12-08T08:03:32.503Z,99.99
2023-12-08T08:06:03.221Z,99.99
2023-12-08T08:08:35.663Z,99.99
2023-12-08T08:11:06.406Z,99.99
2023-12-08T08:13:36.266Z,99.99
2023-12-08T08:16:06.525Z,99.99
2023-12-08T08:18:36.799Z,99.99
2023-12-08T08:21:08.031Z,99.99
2023-12-08T08:23:38.218Z,99.99
2023-12-08T08:26:08.999Z,99.99
2023-12-08T08:28:41.292Z,99.99
2023-12-08T08:31:11.690Z,99.99
2023-12-08T08:33:41.559Z,99.99
2023-12-08T08:36:13.272Z,99.99
2023-12-08T08:38:44.017Z,99.99
2023-12-08T08:41:15.997Z,99.99
2023-12-08T08:43:46.216Z,99.99
2023-12-08T08:46:16.079Z,99.99
2023-12-08T08:48:47.284Z,99.99
2023-12-08T08:51:19.012Z,99.99
2023-12-08T08:53:50.172Z,99.99
2023-12-08T08:56:20.980Z,99.99
2023-12-08T08:58:51.555Z,99.99
2023-12-08T09:01:21.672Z,99.99
2023-12-08T09:03:51.776Z,99.99
2023-12-08T09:06:22.323Z,99.99
2023-12-08T09:08:53.088Z,99.99
2023-12-08T09:11:24.063Z,99.99
2023-12-08T09:13:55.310Z,99.99
2023-12-08T09:16:25.410Z,99.99
2023-12-08T09:18:55.199Z,99.99
2023-12-08T09:21:25.570Z,99.99
2023-12-08T09:23:55.910Z,99.99
2023-12-08T09:26:26.853Z,99.99
2023-12-08T09:28:56.643Z,99.99
2023-12-08T09:31:27.657Z,99.99
2023-12-08T09:33:59.414Z,98.89
2023-12-08T09:36:29.919Z,96.95
2023-12-08T09:38:59.916Z,95.71
2023-12-08T09:41:30.694Z,94.59
2023-12-08T09:44:01.397Z,94.23
2023-12-08T09:46:36.849Z,93.37
2023-12-08T09:49:13.067Z,93.34
2023-12-08T09:51:44.058Z,93.66
2023-12-08T09:54:15.260Z,94.20
2023-12-08T09:56:46.802Z,93.99
2023-12-08T09:59:19.035Z,93.30
2023-12-08T10:01:49.641Z,93.33
2023-12-08T10:04:20.914Z,92.48
2023-12-08T10:06:53.333Z,92.97
2023-12-08T10:09:24.808Z,92.29
2023-12-08T10:11:56.035Z,90.44
2023-12-08T10:14:27.765Z,90.20
2023-12-08T10:16:58.769Z,89.70
2023-12-08T10:19:28.695Z,89.31
2023-12-08T10:22:06.117Z,89.50
2023-12-08T10:24:37.432Z,88.84
2023-12-08T10:27:08.086Z,86.55
2023-12-08T10:29:39.731Z,85.07
2023-12-08T10:32:10.023Z,85.36
2023-12-08T10:34:41.877Z,82.26
2023-12-08T10:37:13.069Z,83.57
2023-12-08T10:39:43.178Z,83.54
2023-12-08T10:42:13.157Z,83.96
2023-12-08T10:44:48.740Z,83.18
2023-12-08T10:47:22.654Z,82.13
2023-12-08T10:49:54.548Z,80.54
2023-12-08T10:52:25.043Z,79.85
2023-12-08T10:54:56.471Z,79.16
2023-12-08T10:57:28.240Z,79.38
2023-12-08T11:00:06.705Z,80.41
2023-12-08T11:02:38.061Z,75.80
2023-12-08T11:05:11.823Z,73.42
2023-12-08T11:07:48.576Z,73.55
2023-12-08T11:10:20.773Z,73.62
2023-12-08T11:13:06.806Z,76.33
2023-12-08T11:15:41.655Z,76.55
2023-12-08T11:18:29.218Z,72.62
2023-12-08T11:20:59.818Z,74.56
2023-12-08T11:23:30.076Z,70.80
2023-12-08T11:26:38.443Z,72.55
2023-12-08T11:29:36.837Z,69.98
2023-12-08T11:32:28.730Z,68.95
2023-12-08T11:35:07.992Z,71.70
2023-12-08T11:37:38.261Z,70.70
2023-12-08T11:40:09.839Z,68.12
2023-12-08T11:42:44.040Z,70.57
2023-12-08T11:45:15.198Z,68.40
2023-12-08T11:47:45.713Z,71.97
2023-12-08T11:50:15.787Z,74.71
2023-12-08T11:52:46.675Z,76.40
2023-12-08T11:55:31.680Z,74.10
2023-12-08T11:58:05.991Z,71.00
2023-12-08T12:00:41.266Z,70.84
2023-12-08T12:03:13.825Z,70.03
2023-12-08T12:05:45.626Z,71.14
2023-12-08T12:08:16.845Z,70.52
2023-12-08T12:10:49.536Z,73.89
2023-12-08T12:13:22.408Z,73.32
2023-12-08T12:15:57.475Z,72.13
2023-12-08T12:18:28.055Z,67.16
2023-12-08T12:20:58.235Z,66.74
2023-12-08T12:23:29.415Z,69.57
2023-12-08T12:25:59.482Z,70.56
2023-12-08T12:28:33.829Z,72.57
2023-12-08T12:31:04.969Z,69.76
2023-12-08T12:33:36.056Z,68.08
2023-12-08T12:36:07.743Z,69.06
2023-12-08T12:38:41.192Z,70.00
2023-12-08T12:41:28.265Z,72.27
2023-12-08T12:44:00.231Z,68.98
2023-12-08T12:46:31.012Z,68.82
2023-12-08T12:49:04.261Z,69.38
2023-12-08T12:51:44.102Z,62.96
2023-12-08T12:54:17.597Z,65.20
2023-12-08T12:56:52.406Z,63.95
2023-12-08T12:59:22.854Z,62.75
2023-12-08T13:01:52.577Z,65.57
2023-12-08T13:04:30.754Z,66.64
2023-12-08T13:07:02.161Z,64.72
2023-12-08T13:09:33.707Z,69.37
2023-12-08T13:12:04.097Z,65.80
2023-12-08T13:14:33.919Z,68.76
2023-12-08T13:17:07.897Z,66.20
2023-12-08T13:19:38.392Z,68.98
2023-12-08T13:22:08.219Z,73.22
2023-12-08T13:24:38.419Z,69.60
2023-12-08T13:27:09.876Z,70.42
2023-12-08T13:29:40.815Z,65.86
2023-12-08T13:32:10.838Z,65.09
2023-12-08T13:34:41.213Z,68.90
2023-12-08T13:37:11.089Z,63.89
2023-12-08T13:39:41.662Z,65.11
2023-12-08T13:42:11.974Z,65.44
2023-12-08T13:44:42.058Z,69.23
2023-12-08T13:47:12.232Z,67.95
2023-12-08T13:49:49.374Z,66.79
2023-12-08T13:52:20.007Z,66.08
2023-12-08T13:54:50.344Z,66.75
2023-12-08T13:57:20.310Z,63.79
2023-12-08T13:59:50.714Z,63.96
2023-12-08T14:02:20.922Z,62.73
2023-12-08T14:04:53.362Z,63.81
2023-12-08T14:07:23.333Z,66.97
2023-12-08T14:09:53.054Z,71.04
2023-12-08T14:12:23.924Z,70.08
2023-12-08T14:14:55.035Z,69.85
2023-12-08T14:17:26.357Z,70.53
2023-12-08T14:19:58.003Z,68.72
2023-12-08T14:22:31.539Z,70.56
2023-12-08T14:25:03.124Z,68.82
2023-12-08T14:27:36.633Z,72.94
2023-12-08T14:30:10.644Z,69.22
2023-12-08T14:32:42.388Z,64.28
2023-12-08T14:35:19.371Z,63.02
2023-12-08T14:37:58.099Z,65.74
2023-12-08T14:40:27.976Z,62.93
2023-12-08T14:42:58.655Z,63.29
2023-12-08T14:45:31.964Z,57.95
2023-12-08T14:48:02.697Z,63.99
2023-12-08T14:50:32.865Z,62.24
2023-12-08T14:53:05.585Z,58.67
2023-12-08T14:55:59.332Z,64.14
2023-12-08T14:58:33.212Z,65.20
2023-12-08T15:01:04.486Z,65.34
2023-12-08T15:03:36.865Z,67.27
2023-12-08T15:06:12.143Z,66.64
2023-12-08T15:08:46.433Z,67.30
2023-12-08T15:11:20.446Z,67.44
2023-12-08T15:13:51.306Z,63.54
2023-12-08T15:16:22.070Z,62.45
2023-12-08T15:18:54.436Z,63.10
2023-12-08T15:21:29.544Z,59.56
2023-12-08T15:23:59.726Z,62.03
2023-12-08T15:26:30.362Z,63.13
2023-12-08T15:29:01.737Z,66.21
2023-12-08T15:31:35.479Z,65.49
2023-12-08T15:34:10.418Z,69.19
2023-12-08T15:36:42.134Z,57.31
2023-12-08T15:39:14.342Z,63.60
2023-12-08T15:41:47.609Z,66.26
2023-12-08T15:44:17.687Z,63.78
2023-12-08T15:46:47.639Z,65.44
2023-12-08T15:49:19.268Z,66.77
2023-12-08T15:51:50.855Z,69.10
2023-12-08T15:54:21.803Z,70.75
2023-12-08T15:56:51.698Z,71.74
2023-12-08T15:59:22.108Z,71.93
2023-12-08T16:02:02.026Z,66.05
2023-12-08T16:04:32.986Z,66.06
2023-12-08T16:07:03.413Z,63.36
2023-12-08T16:09:33.107Z,61.94
2023-12-08T16:12:03.469Z,63.06
2023-12-08T16:14:33.630Z,64.46
2023-12-08T16:17:04.787Z,65.21
2023-12-08T16:19:35.160Z,64.84
2023-12-08T16:22:06.647Z,68.21
2023-12-08T16:24:38.840Z,65.93
2023-12-08T16:27:10.739Z,67.21
2023-12-08T16:29:46.497Z,68.17
2023-12-08T16:32:16.902Z,67.90
2023-12-08T16:34:47.055Z,69.50
2023-12-08T16:37:18.189Z,64.56
2023-12-08T16:39:47.894Z,63.31
2023-12-08T16:42:18.512Z,62.93
2023-12-08T16:44:49.692Z,65.15
2023-12-08T16:47:22.228Z,65.40
2023-12-08T16:49:52.278Z,62.08
2023-12-08T16:52:22.019Z,60.64
2023-12-08T16:54:55.096Z,64.37
2023-12-08T16:57:28.614Z,59.16
2023-12-08T17:00:02.296Z,64.88
2023-12-08T17:02:32.326Z,65.75
2023-12-08T17:05:02.423Z,63.20
2023-12-08T17:07:33.081Z,62.08
2023-12-08T17:10:05.700Z,60.72
2023-12-08T17:12:39.982Z,58.03
2023-12-08T17:15:13.203Z,61.60
2023-12-08T17:17:44.138Z,59.15
2023-12-08T17:20:17.765Z,57.94
2023-12-08T17:22:51.851Z,60.71
2023-12-08T17:25:22.367Z,57.24
2023-12-08T17:27:52.492Z,53.74
2023-12-08T17:30:23.385Z,56.91
2023-12-08T17:32:53.248Z,57.75
2023-12-08T17:35:23.689Z,56.48
2023-12-08T17:37:55.520Z,56.18
2023-12-08T17:40:28.588Z,53.73
2023-12-08T17:43:01.851Z,54.75
2023-12-08T17:45:35.054Z,56.11
2023-12-08T17:48:05.713Z,57.37
2023-12-08T17:50:35.976Z,54.22
2023-12-08T17:53:06.776Z,56.11
2023-12-08T17:55:37.447Z,58.88
2023-12-08T17:58:08.109Z,56.43
2023-12-08T18:00:38.845Z,55.94
2023-12-08T18:03:11.323Z,54.74
2023-12-08T18:05:43.202Z,54.90
2023-12-08T18:08:18.406Z,52.13
2023-12-08T18:10:50.496Z,55.38
2023-12-08T18:13:21.012Z,56.87
2023-12-08T18:15:51.748Z,53.54
2023-12-08T18:18:21.961Z,52.98
2023-12-08T18:20:52.572Z,51.86
2023-12-08T18:23:22.765Z,56.97
2023-12-08T18:25:55.619Z,56.28
2023-12-08T18:31:10.093Z,55.47
2023-12-08T18:33:40.605Z,54.86
2023-12-08T18:36:10.695Z,57.61
2023-12-08T18:38:42.297Z,53.00
2023-12-08T18:41:12.190Z,51.35
2023-12-08T18:43:43.108Z,55.55
2023-12-08T18:46:15.057Z,54.27
2023-12-08T18:48:46.804Z,54.25
2023-12-08T18:51:18.060Z,54.84
2023-12-08T18:53:48.658Z,56.40
2023-12-08T18:56:19.131Z,56.39
2023-12-08T18:58:56.076Z,56.21
2023-12-08T19:01:26.482Z,55.66
2023-12-08T19:04:00.008Z,57.03
2023-12-08T19:06:30.999Z,59.39
2023-12-08T19:09:01.227Z,60.18
2023-12-08T19:11:31.081Z,61.42
2023-12-08T19:14:01.799Z,61.93
2023-12-08T19:16:31.935Z,65.27
2023-12-08T19:19:02.939Z,63.99
2023-12-08T19:21:33.705Z,65.17
2023-12-08T19:24:04.139Z,65.64
2023-12-08T19:26:34.751Z,64.26
2023-12-08T19:29:04.936Z,66.97
2023-12-08T19:31:35.111Z,67.20
2023-12-08T19:34:04.974Z,67.73
2023-12-08T19:36:35.714Z,68.71
2023-12-08T19:39:09.202Z,67.12
2023-12-08T19:41:39.651Z,68.18
2023-12-08T19:44:09.437Z,69.76
2023-12-08T19:46:40.585Z,70.98
2023-12-08T19:49:13.942Z,70.40
2023-12-08T19:51:44.986Z,70.29
2023-12-08T19:54:16.455Z,68.80
2023-12-08T19:56:47.854Z,69.40
2023-12-08T19:59:18.704Z,70.06
2023-12-08T20:01:49.056Z,69.35
2023-12-08T20:04:22.491Z,71.92
2023-12-08T20:06:53.273Z,71.62
2023-12-08T20:09:23.766Z,72.59
2023-12-08T20:11:53.964Z,72.54
2023-12-08T20:14:24.330Z,73.73
2023-12-08T20:16:54.099Z,74.91
2023-12-08T20:19:24.352Z,74.63
2023-12-08T20:21:55.157Z,73.81
2023-12-08T20:24:26.275Z,74.66
2023-12-08T20:26:56.799Z,74.80
2023-12-08T20:29:27.544Z,75.42
2023-12-08T20:31:58.347Z,75.15
2023-12-08T20:34:28.701Z,76.25
2023-12-08T20:37:00.397Z,75.46
2023-12-08T20:39:31.024Z,76.14
2023-12-08T20:42:01.358Z,76.60
2023-12-08T20:44:31.936Z,76.03
2023-12-08T20:47:02.525Z,76.58
2023-12-08T20:49:32.333Z,75.31
2023-12-08T20:52:02.693Z,75.81
2023-12-08T20:54:33.601Z,75.28
2023-12-08T20:57:04.923Z,75.77
2023-12-08T20:59:34.911Z,75.16
2023-12-08T21:02:04.744Z,75.79
2023-12-08T21:04:35.062Z,75.53
2023-12-08T21:07:07.980Z,75.78
2023-12-08T21:09:38.794Z,76.02
2023-12-08T21:12:09.047Z,75.97
2023-12-08T21:14:39.419Z,76.34
2023-12-08T21:17:09.256Z,77.54
2023-12-08T21:19:40.413Z,78.79
2023-12-08T21:22:11.583Z,79.04
2023-12-08T21:24:41.450Z,79.57
2023-12-08T21:27:16.394Z,78.65
2023-12-08T21:29:53.042Z,79.34
2023-12-08T21:32:24.775Z,79.47
2023-12-08T21:34:55.100Z,80.30
2023-12-08T21:37:25.926Z,81.28
2023-12-08T21:39:57.254Z,81.30
2023-12-08T21:42:29.135Z,81.56
2023-12-08T21:45:03.814Z,82.34
2023-12-08T21:47:35.038Z,82.16
2023-12-08T21:50:05.822Z,82.84
2023-12-08T21:52:36.057Z,83.02
2023-12-08T21:55:09.923Z,83.21
2023-12-08T21:57:40.080Z,83.69
2023-12-08T22:00:10.246Z,83.93
2023-12-08T22:02:44.778Z,83.77
2023-12-08T22:05:15.492Z,83.91
2023-12-08T22:07:45.290Z,84.07
2023-12-08T22:10:15.345Z,84.16
2023-12-08T22:12:45.505Z,85.01
2023-12-08T22:15:15.527Z,85.24
2023-12-08T22:17:45.692Z,85.06
2023-12-08T22:20:16.704Z,85.52
2023-12-08T22:22:47.033Z,85.92
2023-12-08T22:25:17.169Z,85.60
2023-12-08T22:27:46.856Z,85.27
2023-12-08T22:30:17.417Z,85.07
2023-12-08T22:32:47.226Z,85.16
2023-12-08T22:35:17.624Z,85.03
2023-12-08T22:37:50.388Z,85.32
2023-12-08T22:40:21.539Z,84.48
2023-12-08T22:42:51.313Z,84.23
2023-12-08T22:45:21.352Z,84.29
2023-12-08T22:47:51.204Z,84.32
2023-12-08T22:50:25.268Z,84.26
2023-12-08T22:53:00.075Z,84.96
2023-12-08T22:55:30.507Z,84.97
2023-12-08T22:58:01.349Z,84.66
2023-12-08T23:00:32.708Z,84.86
2023-12-08T23:03:02.838Z,85.64
2023-12-08T23:05:35.175Z,85.63
2023-12-08T23:08:06.038Z,86.21
2023-12-08T23:10:36.629Z,85.95
2023-12-08T23:13:06.848Z,86.27
2023-12-08T23:15:37.130Z,86.28
2023-12-08T23:18:07.051Z,87.01
2023-12-08T23:20:37.916Z,87.43
2023-12-08T23:23:08.073Z,87.82
2023-12-08T23:25:39.211Z,87.64
2023-12-08T23:28:09.166Z,87.61
2023-12-08T23:30:40.870Z,87.48
2023-12-08T23:33:14.423Z,87.57
2023-12-08T23:35:46.135Z,87.82
2023-12-08T23:38:17.347Z,87.83
2023-12-08T23:40:47.041Z,87.60
2023-12-08T23:43:17.191Z,87.63
2023-12-08T23:45:47.668Z,87.34
2023-12-08T23:48:18.586Z,87.03
2023-12-08T23:50:49.784Z,87.38
2023-12-08T23:53:23.475Z,87.35
2023-12-08T23:55:54.091Z,87.39
2023-12-08T23:58:24.845Z,87.61
